ADDS METAR Data INFO
IDs: Format: Raw Decoded Include TAF

Data at: 1051 UTC 20 Sep 2017

KAFW 200953Z 18008G16KT 10SM FEW150 SCT250 26/22 A2983 RMK AO2 SLP082 T02560222
KAFW 200853Z 18011G18KT 10SM FEW150 SCT250 26/22 A2981 RMK AO2 SLP077 T02610222 50001
KAFW 200753Z 17009G16KT 10SM BKN250 27/22 A2982 RMK AO2 SLP080 T02670222
KAFW 200653Z 17007KT 10SM BKN250 26/22 A2982 RMK AO2 SLP081 T02560217
KAFW 200553Z 17006KT 10SM BKN250 24/22 A2981 RMK AO2 SLP079 60018 T02440222 10333 20222 403670222 56020
KAFW 200453Z 16005KT 10SM FEW075 SCT120 BKN240 23/22 A2984 RMK AO2 RAE0356 TSE36 SLP088 TS DSIPTD P0000 T02280217
KAFW 200436Z 10004KT 10SM FEW075 SCT120 BKN240 23/21 A2983 RMK AO2 RAE0356 TSE36 TS DSIPTD P0000 T02280211
KAFW 200353Z 12008KT 10SM -TSRA SCT049CB SCT075 BKN095 OVC300 22/20 A2983 RMK AO2 PK WND 34026/0316 LTG DSNT N-E RAB0255 PRESFR SLP088 FRQ LTGICCCCG NE-SE AND DSNT N-NE TS NE-SE MOV SE CB DSNT N-NE MOV SE P0018 T02220200
KAFW 200323Z 33018G26KT 3SM -TSRA FEW040 BKN050CB OVC060 23/20 A2990 RMK AO2 PK WND 34026/0316 LTG DSNT NW-NE RAB0255 CONS LTGICCC ALQDS AND DSNT NW-NE TS ALQDS MOV SE CB DSNT NW-NE MOV SE P0018 T02280200
KAFW 200307Z 34019G26KT 1SM +TSRA BR BKN050CB BKN065 BKN080 OVC300 24/22 A2990 RMK AO2 PK WND 34026/0305 LTG DSNT W-NE RAB0255 PRESRR CONS LTGICCC ALQDS AND DSNT W-NE TS ALQDS MOV SE CB DSNT W-NE MOV SE P0008 T02390217 RVRNO
KAFW 200253Z 33016G23KT 10SM TS BKN050CB BKN300 27/20 A2987 RMK AO2 WSHFT 0235 LTG DSNT W-N TSB20 SLP100 CONS LTGICCC ALQDS AND DSNT W-N TS ALQDS MOV SE CB DSNT W-N MOV SE VCSH SW-N T02720200 53040
KAFW 200238Z 30013G19KT 10SM TS BKN055CB BKN300 29/20 A2986 RMK AO2 LTG DSNT W-N TSB20 FRQ LTGICCG W-N AND DSNT W-N TS W-N MOV SE CB DSNT W-N MOV SE T02890200
KAFW 200220Z 18005KT 10SM TS SCT050CB SCT180 BKN300 31/21 A2986 RMK AO2 LTG DSNT W-N TSB20 FRQ LTGICCG NW AND DSNT W-N TS NW MOV SE CB DSNT W-N MOV SE T03060206
KAFW 200153Z 18007KT 10SM FEW065 SCT180 BKN300 31/20 A2982 RMK AO2 LTG DSNT W-N SLP081 CONS LTGICCC DSNT W-N CB DSNT W-N MOV SE T03110200
KAFW 200053Z 16013G20KT 10SM FEW065 SCT180 BKN300 32/19 A2978 RMK AO2 SLP067 CONS LTGIC DSNT NW CB DSNT NW MOV E T03220194
KAFW 192353Z 17011G20KT 10SM FEW065 FEW200 SCT300 33/19 A2975 RMK AO2 SLP058 CB DSNT NW MOV E T03330194 10367 20328 55012
KAFW 192253Z 17013G20KT 10SM FEW070 FEW200 SCT300 35/19 A2975 RMK AO2 SLP056 T03500194
KAFW 192153Z 17009G18KT 10SM FEW070 FEW200 SCT300 36/18 A2975 RMK AO2 SLP058 T03610183
KAFW 192053Z 17013G18KT 10SM SCT060 SCT300 37/20 A2979 RMK AO2 SLP070 T03670200 58031
KAFW 191953Z 16012G18KT 10SM FEW050 SCT300 36/22 A2982 RMK AO2 SLP080 T03560217
KAFW 191853Z 19010G20KT 10SM FEW045 SCT250 BKN300 34/22 A2985 RMK AO2 SLP092 T03440222
KAFW 191753Z 16012G18KT 10SM FEW035 SCT250 BKN300 33/23 A2988 RMK AO2 SLP102 T03330228 10339 20233 58014
KAFW 191653Z COR 19010G16KT 10SM FEW026 SCT300 32/23 A2991 RMK AO2 SLP111 T03170228
KAFW 191553Z COR 17010KT 150V210 10SM FEW024 SCT240 BKN300 31/23 A2992 RMK AO2 SLP115 T03060228
KAFW 191453Z 18007KT 10SM FEW015 SCT240 BKN300 28/23 A2992 RMK AO2 SLP118 T02780228 51009
KAFW 191353Z 17010KT 10SM SCT008 SCT200 BKN300 25/23 A2992 RMK AO2 SLP117 T02500228
KAFW 191313Z 16008KT 10SM FEW007 FEW011 SCT200 BKN300 24/23 A2991 RMK AO2 T02440233
KAFW 191253Z 16008KT 9SM FEW011 SCT200 BKN300 24/23 A2990 RMK AO2 SLP112 T02390228
KAFW 191153Z 16008KT 10SM FEW015 BKN250 23/23 A2989 RMK AO2 SLP108 T02330228 10261 20233 55000
KAFW 191053Z 18004KT 10SM FEW300 23/23 A2989 RMK AO2 SLP106 T02330228
KAFW 190953Z 17004KT 10SM FEW300 23/22 A2989 RMK AO2 SLP106 T02330222
KAFW 190853Z 16004KT 10SM FEW300 24/22 A2990 RMK AO2 SLP106 T02390222 56002
KAFW 190753Z 17005KT 10SM FEW300 24/22 A2990 RMK AO2 SLP106 T02440222
KAFW 190653Z 17006KT 10SM FEW300 26/22 A2990 RMK AO2 SLP106 T02560222
KAFW 190553Z 17008KT 10SM FEW300 26/22 A2990 RMK AO2 SLP109 T02610217 10322 20261 403440200 58001
KAFW 190453Z 16009KT 10SM FEW300 27/22 A2992 RMK AO2 SLP114 T02720222
KAFW 190353Z 15008KT 10SM FEW300 28/21 A2992 RMK AO2 SLP114 T02830211
KAFW 190253Z 13007KT 10SM SCT300 27/19 A2990 RMK AO2 SLP111 T02670189 53007
KAFW 190153Z 12004KT 10SM SCT300 28/19 A2990 RMK AO2 SLP109 T02780189
KAFW 190053Z 12004KT 10SM FEW300 29/18 A2989 RMK AO2 SLP108 T02940183
KAFW 182353Z COR 13006KT 10SM FEW065 FEW300 32/18 A2988 RMK AO2 SLP105 T03220178 10344 20317 55010
KAFW 182253Z 13008KT 080V180 10SM FEW300 33/17 A2988 RMK AO2 SLP103 T03330172